aviador You're here:

KOSH Decoded Metar

OSHKOSH in WI, USA
Report Time2018-07-20 08:53:00
UTC Time2018-07-20 09:05:51
Flight Rules mvfr MVFR
Wind130° at 11 Gusting to 20 kt
W.Decomp.*RWY 13: 11.0 kt HW 0.6 kt RCW
RWY 09: 8.0 kt HW 7.5 kt RCW
RWY 18: 7.5 kt HW 8 kt LCW
RWY 22: 0.6 kt HW 11 kt LCW
W.Rank130° ranks 30
Current wind is above 130° avg. (7.3)
Visibility9999 m
Phenomena:N/A
Clouds:Few 015 Hf
Broken 026 Hf
Broken 035 Hf
Expected CloudBase > 800 ft AGL from Temp-Dew spread
Ceiling2,600 ft
Temp21°C (ISA +8)
Dew Point19°C (88% RH)
AAT20.2°C
QNH1004 hPa
Density Alt2,303 ft
Elevation814 ft
Report Wrong Elevation
Raw Report
KOSH 200853Z AUTO 13011G20KT 10SM FEW015 BKN026 BKN035 21/19 A2964
RMK AO2 RAE19 SLP024 P0001 60018 T02060194 58027=

Extra information for KOSH:More info

Metar Taf Metar & Taf Last 4 Metars F.Rules Stats Wind Profile Meteogram Temp Stats Airport Information Weather charts Add Link Nearby VenuesMetar ALERT Operation Metar Decoded Social comments

AIRNAV info for KOSH
EAA Airventure